Bookmark and Share
Track history (hours):
 

Minerva Zen

Last reported at 2014-Apr-24 21:33 UTC. Time now 2014-Apr-24 22:01 UTC.
Position N 50°24' E 000°24'.

Length 183 m; draft 8 m.

Type: Ship. MMSI: 241190000.

NotesDate/timePositionNaut miles runAvg speedWind from/ knotsBaromVisibWave heightAir tempDewpointWater temp
2014-Apr-24 21:33N 50°24' E 000°24'9 8.9
2014-Apr-24 20:32N 50°21' E 000°10'14 9.7
2014-Apr-24 19:07N 50°17' W 000°10'1811.1
2014-Apr-24 17:31N 50°13' W 000°37'1212.2
2014-Apr-24 16:33N 50°10' W 000°54'1312.6
2014-Apr-24 15:33N 50°06' W 001°13'1312.5
2014-Apr-24 14:30N 50°03' W 001°33'  
2014-Apr-21 01:32N 38°04' W 009°45'2410.2
2014-Apr-20 23:09N 37°41' W 009°38'6 9.5
2014-Apr-20 22:33N 37°35' W 009°37'207 8.9
2014-Apr-19 23:15N 35°57' W 005°49'10 9.5
2014-Apr-19 22:11N 35°57' W 005°37'5 8.3
2014-Apr-19 21:33N 35°59' W 005°30'6 6.1
2014-Apr-19 20:33N 36°01' W 005°23'6 6.2
2014-Apr-19 19:33N 36°03' W 005°16'8 7.4
2014-Apr-19 18:31N 36°03' W 005°06'258 9.2
2014-Apr-18 14:32N 36°52' E 000°09'1110.6
2014-Apr-18 13:30N 36°55' E 000°22'4210.5
2014-Apr-18 09:33N 37°04' E 001°13'3110.5
2014-Apr-18 06:33N 37°11' E 001°51'12 9.9
2014-Apr-18 05:23N 37°14' E 002°05'910.5
2014-Apr-18 04:33N 37°16' E 002°16'1310.3
2014-Apr-18 03:17N 37°19' E 002°32'810.0
2014-Apr-18 02:31N 37°20' E 002°41'1010.0
2014-Apr-18 01:33N 37°23' E 002°53'28610.4
2014-Apr-16 22:07N 38°27' E 008°46'2210.6
2014-Apr-16 20:04N 38°32' E 009°13'1 1.6
2014-Apr-16 19:32N 38°33' E 009°13'1 1.5
2014-Apr-16 18:32N 38°34' E 009°14'1 1.4
2014-Apr-16 17:33N 38°35' E 009°15'1 1.4
2014-Apr-16 16:32N 38°37' E 009°16'1 1.5
2014-Apr-16 15:33N 38°38' E 009°16'2 1.5
2014-Apr-16 14:33N 38°39' E 009°17'2 1.8
2014-Apr-16 13:33N 38°41' E 009°17'2 2.0
2014-Apr-16 12:32N 38°43' E 009°18'2 1.9
2014-Apr-16 11:32N 38°45' E 009°18'2 1.6
2014-Apr-16 10:33N 38°47' E 009°19'1 1.3
2014-Apr-16 09:33N 38°48' E 009°19'1 0.9
2014-Apr-16 08:33N 38°49' E 009°18'1 0.8
2014-Apr-16 07:33N 38°49' E 009°18'1 0.7
2014-Apr-16 06:33N 38°50' E 009°18'1 0.7
2014-Apr-16 05:32N 38°51' E 009°18'0 0.5
2014-Apr-16 04:33N 38°51' E 009°17'6 5.5
2014-Apr-16 03:33N 38°56' E 009°14'1110.8
2014-Apr-16 02:33N 39°05' E 009°06'3 3.0
2014-Apr-16 01:32N 39°05' E 009°02'0 0.0
2014-Apr-16 00:32N 39°05' E 009°02'0 0.0
2014-Apr-15 23:32N 39°05' E 009°02'0 0.0
2014-Apr-15 22:32N 39°05' E 009°02'0 0.0
2014-Apr-15 21:32N 39°05' E 009°02'0 0.0
2014-Apr-15 20:32N 39°05' E 009°02'0 0.0
2014-Apr-15 19:29N 39°05' E 009°02'0 0.0
2014-Apr-15 18:32N 39°05' E 009°02'0 0.0
2014-Apr-15 17:32N 39°05' E 009°02'0 0.0
2014-Apr-15 16:32N 39°05' E 009°02'0 0.0
2014-Apr-15 15:32N 39°05' E 009°02'0 0.0
2014-Apr-15 11:33N 39°05' E 009°02'0 0.0
2014-Apr-15 10:33N 39°05' E 009°02'0 0.0
2014-Apr-15 09:33N 39°05' E 009°02'0 0.0
2014-Apr-15 08:33N 39°05' E 009°02'0 0.0
2014-Apr-15 07:33N 39°05' E 009°02'0 0.0
2014-Apr-15 06:33N 39°05' E 009°02'0 0.0
2014-Apr-15 05:33N 39°05' E 009°02'0 0.0
2014-Apr-15 03:33N 39°05' E 009°02'0 0.0
2014-Apr-15 02:33N 39°05' E 009°02'0 0.0
2014-Apr-15 01:33N 39°05' E 009°02'0 0.0
2014-Apr-15 00:33N 39°05' E 009°02'0 0.0
2014-Apr-14 23:33N 39°05' E 009°02'0 0.0
2014-Apr-14 22:30N 39°05' E 009°02'  

Dump ship's entire track history

sailing weather and tide predictions

Minerva Zen — SVBN3 — position and weather